createdAt,value
2019-05-09T00:01:43.902Z,2.17
2019-05-09T00:04:33.576Z,2.00
2019-05-09T00:07:25.582Z,2.60
2019-05-09T00:10:14.766Z,2.58
2019-05-09T00:13:04.580Z,2.30
2019-05-09T00:15:54.277Z,3.08
2019-05-09T00:18:45.723Z,3.27
2019-05-09T00:21:43.555Z,3.72
2019-05-09T00:24:33.231Z,3.33
2019-05-09T00:27:23.849Z,3.10
2019-05-09T00:30:13.966Z,3.67
2019-05-09T00:33:05.133Z,3.37
2019-05-09T00:35:53.717Z,3.83
2019-05-09T00:38:45.435Z,3.90
2019-05-09T00:41:35.104Z,3.87
2019-05-09T00:44:29.156Z,3.90
2019-05-09T00:47:24.792Z,4.42
2019-05-09T00:50:17.117Z,3.85
2019-05-09T00:53:07.836Z,3.92
2019-05-09T00:55:57.579Z,3.90
2019-05-09T00:58:46.366Z,4.12
2019-05-09T01:01:54.641Z,4.20
2019-05-09T01:04:43.901Z,4.15
2019-05-09T01:07:33.735Z,4.58
2019-05-09T01:10:23.911Z,4.58
2019-05-09T01:13:14.189Z,3.70
2019-05-09T01:16:06.365Z,4.15
2019-05-09T01:18:55.504Z,3.90
2019-05-09T01:21:44.106Z,4.00
2019-05-09T01:24:33.793Z,3.70
2019-05-09T01:27:23.576Z,4.62
2019-05-09T01:30:13.862Z,3.25
2019-05-09T01:33:21.116Z,3.52
2019-05-09T01:36:09.711Z,3.75
2019-05-09T01:38:59.044Z,3.62
2019-05-09T01:41:47.818Z,3.75
2019-05-09T01:44:36.983Z,3.45
2019-05-09T01:47:26.119Z,3.22
2019-05-09T01:50:14.620Z,3.72
2019-05-09T01:53:04.156Z,3.55
2019-05-09T01:55:59.548Z,3.15
2019-05-09T01:58:48.351Z,2.98
2019-05-09T02:01:37.327Z,3.27
2019-05-09T02:04:26.355Z,3.12
2019-05-09T02:07:15.318Z,2.95
2019-05-09T02:10:04.706Z,2.87
2019-05-09T02:12:54.128Z,3.40
2019-05-09T02:15:53.964Z,2.83
2019-05-09T02:18:54.646Z,3.50
2019-05-09T02:21:44.145Z,3.45
2019-05-09T02:24:33.816Z,3.10
2019-05-09T02:27:23.922Z,2.70
2019-05-09T02:30:15.481Z,3.15
2019-05-09T02:33:05.243Z,3.05
2019-05-09T02:36:00.801Z,2.72
2019-05-09T02:38:44.777Z,3.00
2019-05-09T02:41:33.614Z,2.70
2019-05-09T02:44:23.112Z,2.80
2019-05-09T02:47:18.483Z,2.70
2019-05-09T02:50:09.286Z,2.70
2019-05-09T02:52:59.257Z,2.67
2019-05-09T02:55:49.655Z,3.00
2019-05-09T02:58:48.685Z,2.90
2019-05-09T03:01:58.541Z,2.52
2019-05-09T03:04:48.924Z,2.55
2019-05-09T03:07:50.458Z,3.27
2019-05-09T03:10:39.755Z,2.85
2019-05-09T03:13:29.324Z,3.12
2019-05-09T03:16:19.255Z,3.08
2019-05-09T03:19:09.369Z,3.17
2019-05-09T03:22:02.607Z,2.70
2019-05-09T03:24:51.193Z,2.75
2019-05-09T03:27:42.212Z,2.65
2019-05-09T03:30:33.490Z,2.70
2019-05-09T03:33:22.785Z,2.65
2019-05-09T03:36:12.820Z,2.80
2019-05-09T03:39:02.270Z,3.02
2019-05-09T03:41:51.856Z,3.08
2019-05-09T03:44:42.077Z,2.87
2019-05-09T03:47:37.686Z,2.87
2019-05-09T03:50:27.974Z,3.20
2019-05-09T03:53:18.436Z,3.15
2019-05-09T03:56:10.677Z,3.20
2019-05-09T03:58:59.721Z,3.20
2019-05-09T04:01:50.314Z,2.87
2019-05-09T04:04:39.689Z,2.87
2019-05-09T04:07:29.916Z,2.90
2019-05-09T04:10:19.301Z,2.92
2019-05-09T04:13:11.154Z,2.70
2019-05-09T04:15:59.295Z,2.52
2019-05-09T04:18:48.745Z,3.00
2019-05-09T04:21:38.969Z,2.98
2019-05-09T04:24:29.972Z,2.65
2019-05-09T04:27:24.433Z,2.83
2019-05-09T04:30:18.241Z,2.83
2019-05-09T04:33:07.393Z,3.05
2019-05-09T04:35:57.896Z,2.58
2019-05-09T04:38:47.438Z,2.90
2019-05-09T04:41:38.557Z,2.40
2019-05-09T04:44:37.485Z,2.62
2019-05-09T04:47:27.894Z,2.40
2019-05-09T04:50:23.497Z,2.67
2019-05-09T04:53:08.129Z,2.50
2019-05-09T04:55:59.222Z,2.47
2019-05-09T04:58:48.620Z,2.70
2019-05-09T05:01:47.737Z,2.00
2019-05-09T05:04:37.369Z,2.47
2019-05-09T05:07:28.671Z,2.40
2019-05-09T05:10:18.562Z,3.08
2019-05-09T05:13:07.859Z,2.30
2019-05-09T05:15:57.909Z,2.17
2019-05-09T05:18:47.868Z,2.60
2019-05-09T05:21:37.806Z,2.75
2019-05-09T05:24:48.788Z,2.22
2019-05-09T05:27:38.242Z,2.58
2019-05-09T05:30:28.432Z,2.30
2019-05-09T05:33:53.379Z,2.30
2019-05-09T05:36:40.518Z,2.33
2019-05-09T05:39:30.017Z,2.17
2019-05-09T05:42:22.140Z,2.47
2019-05-09T05:45:12.785Z,2.60
2019-05-09T05:48:07.882Z,2.55
2019-05-09T05:50:58.675Z,2.52
2019-05-09T05:53:48.150Z,2.37
2019-05-09T05:56:38.225Z,2.30
2019-05-09T05:59:28.542Z,2.47
2019-05-09T06:02:20.925Z,2.37
2019-05-09T06:05:10.568Z,3.00
2019-05-09T06:07:59.927Z,2.80
2019-05-09T06:10:49.616Z,2.60
2019-05-09T06:13:53.193Z,2.90
2019-05-09T06:16:31.412Z,2.65
2019-05-09T06:19:20.184Z,2.70
2019-05-09T06:22:10.604Z,2.20
2019-05-09T06:25:00.182Z,2.55
2019-05-09T06:27:51.274Z,2.87
2019-05-09T06:30:42.692Z,2.40
2019-05-09T06:33:31.627Z,2.80
2019-05-09T06:36:20.550Z,2.20
2019-05-09T06:39:10.445Z,2.20
2019-05-09T06:41:59.361Z,2.17
2019-05-09T06:45:04.473Z,2.12
2019-05-09T06:47:53.045Z,2.30
2019-05-09T06:50:42.553Z,2.02
2019-05-09T06:53:31.541Z,2.47
2019-05-09T06:56:20.975Z,2.20
2019-05-09T06:59:10.407Z,2.17
2019-05-09T07:02:02.049Z,2.05
2019-05-09T07:04:57.978Z,2.35
2019-05-09T07:08:24.135Z,1.67
2019-05-09T07:11:12.883Z,2.40
2019-05-09T07:14:04.516Z,2.30
2019-05-09T07:16:55.134Z,2.30
2019-05-09T07:19:48.877Z,1.57
2019-05-09T07:22:50.142Z,2.20
2019-05-09T07:26:17.681Z,2.40
2019-05-09T07:29:08.761Z,2.33
2019-05-09T07:32:07.497Z,2.08
2019-05-09T07:35:00.737Z,1.60
2019-05-09T07:37:50.111Z,2.75
2019-05-09T07:40:39.195Z,2.15
2019-05-09T07:43:28.274Z,1.90
2019-05-09T07:46:23.334Z,2.15
2019-05-09T07:49:13.871Z,2.37
2019-05-09T07:52:06.871Z,1.70
2019-05-09T07:54:53.835Z,2.33
2019-05-09T07:57:47.576Z,2.15
2019-05-09T08:00:34.887Z,1.62
2019-05-09T08:03:23.758Z,2.15
2019-05-09T08:06:12.431Z,2.35
2019-05-09T08:09:01.266Z,2.15
2019-05-09T08:11:51.114Z,2.08
2019-05-09T08:14:40.156Z,1.85
2019-05-09T08:17:28.979Z,1.75
2019-05-09T08:20:17.753Z,1.90
2019-05-09T08:23:08.724Z,2.08
2019-05-09T08:25:58.006Z,1.82
2019-05-09T08:28:48.112Z,1.87
2019-05-09T08:31:40.114Z,1.92
2019-05-09T08:34:28.558Z,2.02
2019-05-09T08:37:17.603Z,1.90
2019-05-09T08:40:07.960Z,2.02
2019-05-09T08:42:58.731Z,2.00
2019-05-09T08:45:48.477Z,2.35
2019-05-09T08:48:37.941Z,2.25
2019-05-09T08:51:41.339Z,1.82
2019-05-09T08:54:42.559Z,2.00
2019-05-09T08:57:31.903Z,2.15
2019-05-09T09:00:20.469Z,2.40
2019-05-09T09:03:09.416Z,2.58
2019-05-09T09:05:57.994Z,2.33
2019-05-09T09:08:48.301Z,2.00
2019-05-09T09:11:38.642Z,2.22
2019-05-09T09:14:28.304Z,1.87
2019-05-09T09:17:18.801Z,1.80
2019-05-09T09:20:07.929Z,2.20
2019-05-09T09:22:58.302Z,2.20
2019-05-09T09:25:48.671Z,2.27
2019-05-09T09:28:38.366Z,2.42
2019-05-09T09:31:28.543Z,2.25
2019-05-09T09:34:18.203Z,2.20
2019-05-09T09:37:11.246Z,1.87
2019-05-09T09:39:58.456Z,2.35
2019-05-09T09:42:49.150Z,2.00
2019-05-09T09:45:38.276Z,1.98
2019-05-09T09:48:28.831Z,1.70
2019-05-09T09:51:18.913Z,2.58
2019-05-09T09:54:09.018Z,1.87
2019-05-09T09:57:00.365Z,2.05
2019-05-09T09:59:58.397Z,2.00
2019-05-09T10:02:49.390Z,2.00
2019-05-09T10:05:39.447Z,1.77
2019-05-09T10:08:29.535Z,2.00
2019-05-09T10:11:19.237Z,2.05
2019-05-09T10:14:10.700Z,2.05
2019-05-09T10:17:21.309Z,2.02
2019-05-09T10:20:18.169Z,1.70
2019-05-09T10:23:15.009Z,1.98
2019-05-09T10:25:58.388Z,2.02
2019-05-09T10:28:50.202Z,2.08
2019-05-09T10:31:40.757Z,1.90
2019-05-09T10:34:29.942Z,2.00
2019-05-09T10:37:20.041Z,2.52
2019-05-09T10:40:13.890Z,1.80
2019-05-09T10:43:37.624Z,1.72
2019-05-09T10:46:52.628Z,2.17
2019-05-09T10:49:35.057Z,2.20
2019-05-09T10:52:24.085Z,2.17
2019-05-09T10:55:13.242Z,2.55
2019-05-09T10:58:08.153Z,1.85
2019-05-09T11:00:58.815Z,2.45
2019-05-09T11:03:49.003Z,1.98
2019-05-09T11:06:41.408Z,2.10
2019-05-09T11:09:32.898Z,2.10
2019-05-09T11:12:27.409Z,2.40
2019-05-09T11:15:18.510Z,2.42
2019-05-09T11:18:10.262Z,1.92
2019-05-09T11:20:59.896Z,2.33
2019-05-09T11:23:49.219Z,2.15
2019-05-09T11:26:43.511Z,1.77
2019-05-09T11:29:32.741Z,2.27
2019-05-09T11:32:21.977Z,2.05
2019-05-09T11:35:12.733Z,2.10
2019-05-09T11:38:01.795Z,2.45
2019-05-09T11:40:53.574Z,3.00
2019-05-09T11:43:47.847Z,1.92
2019-05-09T11:46:39.112Z,1.85
2019-05-09T11:49:29.896Z,2.12
2019-05-09T11:52:22.243Z,1.85
2019-05-09T11:55:28.792Z,2.35
2019-05-09T11:58:08.742Z,2.25
2019-05-09T12:01:08.293Z,1.95
2019-05-09T12:03:59.238Z,1.98
2019-05-09T12:06:54.031Z,2.05
2019-05-09T12:09:45.318Z,2.33
2019-05-09T12:12:35.440Z,2.10
2019-05-09T12:15:25.147Z,2.17
2019-05-09T12:18:13.834Z,2.17
2019-05-09T12:21:03.747Z,2.90
2019-05-09T12:23:53.176Z,2.00
2019-05-09T12:26:42.120Z,2.65
2019-05-09T12:29:33.709Z,2.00
2019-05-09T12:32:24.502Z,2.15
2019-05-09T12:35:14.111Z,2.25
2019-05-09T12:38:03.102Z,1.87
2019-05-09T12:40:52.526Z,2.50
2019-05-09T12:43:42.360Z,1.95
2019-05-09T12:46:34.688Z,2.17
2019-05-09T12:49:24.202Z,2.22
2019-05-09T12:52:14.311Z,2.10
2019-05-09T12:55:08.170Z,2.17
2019-05-09T12:58:00.767Z,2.50
2019-05-09T13:00:51.937Z,2.35
2019-05-09T13:03:40.864Z,2.00
2019-05-09T13:06:34.487Z,2.47
2019-05-09T13:09:24.302Z,2.20
2019-05-09T13:12:13.718Z,2.00
2019-05-09T13:15:04.911Z,2.00
2019-05-09T13:17:55.692Z,2.60
2019-05-09T13:20:48.770Z,2.85
2019-05-09T13:23:36.889Z,2.70
2019-05-09T13:26:28.834Z,2.65
2019-05-09T13:29:16.638Z,3.60
2019-05-09T13:32:05.668Z,3.37
2019-05-09T13:34:54.797Z,3.58
2019-05-09T13:37:43.436Z,3.92
2019-05-09T13:40:32.633Z,3.47
2019-05-09T13:43:24.441Z,3.75
2019-05-09T13:46:14.079Z,4.55
2019-05-09T13:49:11.612Z,4.12
2019-05-09T13:52:04.234Z,4.35
2019-05-09T13:54:48.524Z,4.17
2019-05-09T13:57:38.072Z,3.72
2019-05-09T14:00:28.590Z,4.25
2019-05-09T14:03:18.980Z,4.03
2019-05-09T14:06:08.969Z,3.65
2019-05-09T14:08:59.724Z,3.98
2019-05-09T14:11:51.759Z,3.62
2019-05-09T14:14:40.728Z,4.37
2019-05-09T14:17:44.846Z,3.40
2019-05-09T14:20:20.913Z,4.00
2019-05-09T14:23:11.706Z,3.90
2019-05-09T14:26:00.422Z,4.35
2019-05-09T14:28:49.262Z,4.58
2019-05-09T14:31:39.002Z,4.28
2019-05-09T14:34:30.208Z,3.77
2019-05-09T14:37:18.991Z,3.87
2019-05-09T14:40:10.146Z,3.55
2019-05-09T14:42:58.163Z,3.10
2019-05-09T14:45:48.350Z,3.05
2019-05-09T14:48:40.119Z,3.80
2019-05-09T14:51:29.259Z,2.85
2019-05-09T14:54:19.253Z,2.98
2019-05-09T14:57:09.707Z,2.92
2019-05-09T14:59:59.566Z,2.80
2019-05-09T15:02:49.086Z,2.40
2019-05-09T15:05:38.133Z,2.58
2019-05-09T15:08:29.233Z,2.70
2019-05-09T15:11:18.591Z,2.37
2019-05-09T15:14:08.324Z,2.08
2019-05-09T15:16:57.656Z,1.95
2019-05-09T15:19:59.391Z,2.17
2019-05-09T15:22:38.931Z,1.95
2019-05-09T15:25:36.328Z,2.77
2019-05-09T15:28:30.164Z,2.10
2019-05-09T15:31:20.231Z,2.45
2019-05-09T15:34:12.270Z,2.65
2019-05-09T15:37:02.170Z,1.62
2019-05-09T15:39:52.005Z,2.40
2019-05-09T15:42:41.059Z,1.82
2019-05-09T15:45:32.827Z,2.25
2019-05-09T15:48:22.788Z,1.77
2019-05-09T15:51:14.883Z,2.47
2019-05-09T15:54:08.119Z,2.20
2019-05-09T15:56:58.590Z,1.95
2019-05-09T15:59:48.236Z,2.27
2019-05-09T16:02:39.239Z,2.30
2019-05-09T16:05:31.909Z,2.15
2019-05-09T16:08:24.487Z,2.80
2019-05-09T16:11:15.080Z,2.30
2019-05-09T16:14:04.311Z,2.50
2019-05-09T16:16:54.981Z,2.00
2019-05-09T16:19:50.059Z,2.80
2019-05-09T16:22:43.432Z,2.10
2019-05-09T16:25:34.120Z,1.85
2019-05-09T16:28:24.005Z,2.25
2019-05-09T16:31:15.245Z,1.90
2019-05-09T16:34:04.869Z,2.12
2019-05-09T16:36:54.420Z,2.45
2019-05-09T16:39:44.448Z,2.15
2019-05-09T16:42:34.215Z,2.35
2019-05-09T16:45:23.557Z,2.30
2019-05-09T16:48:12.958Z,1.98
2019-05-09T16:51:04.396Z,2.47
2019-05-09T16:53:53.236Z,2.17
2019-05-09T16:56:43.246Z,2.17
2019-05-09T16:59:32.549Z,2.70
2019-05-09T17:02:24.965Z,2.35
2019-05-09T17:05:13.485Z,2.20
2019-05-09T17:08:02.652Z,2.33
2019-05-09T17:10:51.214Z,2.02
2019-05-09T17:13:39.963Z,2.52
2019-05-09T17:16:29.353Z,1.82
2019-05-09T17:19:19.553Z,2.70
2019-05-09T17:22:17.103Z,1.95
2019-05-09T17:25:07.949Z,2.62
2019-05-09T17:27:59.444Z,2.00
2019-05-09T17:30:49.327Z,2.65
2019-05-09T17:33:38.447Z,1.72
2019-05-09T17:36:28.572Z,2.55
2019-05-09T17:39:18.707Z,2.40
2019-05-09T17:42:08.408Z,2.58
2019-05-09T17:44:58.020Z,2.77
2019-05-09T17:47:48.560Z,3.00
2019-05-09T17:50:38.589Z,2.90
2019-05-09T17:53:29.258Z,2.30
2019-05-09T17:56:19.275Z,3.00
2019-05-09T17:59:08.788Z,1.80
2019-05-09T18:01:57.904Z,2.08
2019-05-09T18:04:48.044Z,2.20
2019-05-09T18:07:37.857Z,2.10
2019-05-09T18:10:27.380Z,2.80
2019-05-09T18:13:23.607Z,2.75
2019-05-09T18:16:08.775Z,2.45
2019-05-09T18:18:58.702Z,2.15
2019-05-09T18:21:51.197Z,2.30
2019-05-09T18:24:39.653Z,3.08
2019-05-09T18:27:31.512Z,2.55
2019-05-09T18:30:20.953Z,1.92
2019-05-09T18:33:15.987Z,2.17
2019-05-09T18:36:04.527Z,1.95
2019-05-09T18:38:53.472Z,2.20
2019-05-09T18:41:42.433Z,2.50
2019-05-09T18:44:33.577Z,2.25
2019-05-09T18:47:22.576Z,2.40
2019-05-09T18:50:11.900Z,2.27
2019-05-09T18:53:01.567Z,2.83
2019-05-09T18:55:50.779Z,2.40
2019-05-09T18:58:48.638Z,2.90
2019-05-09T19:01:43.096Z,2.42
2019-05-09T19:04:32.172Z,2.35
2019-05-09T19:07:22.921Z,2.37
2019-05-09T19:10:13.615Z,2.50
2019-05-09T19:13:03.475Z,2.35
2019-05-09T19:16:13.418Z,2.70
2019-05-09T19:19:30.876Z,2.83
2019-05-09T19:25:11.834Z,2.50
2019-05-09T19:28:24.096Z,2.62
2019-05-09T19:31:12.847Z,2.60
2019-05-09T19:34:02.355Z,2.60
2019-05-09T19:36:52.006Z,2.35
2019-05-09T19:39:45.924Z,2.20
2019-05-09T19:42:35.282Z,2.50
2019-05-09T19:45:24.999Z,2.17
2019-05-09T19:48:14.254Z,2.25
2019-05-09T19:51:05.662Z,2.37
2019-05-09T19:53:55.276Z,2.47
2019-05-09T19:56:48.175Z,2.52
2019-05-09T19:59:37.791Z,2.20
2019-05-09T20:02:26.783Z,2.72
2019-05-09T20:05:16.578Z,2.45
2019-05-09T20:08:06.974Z,2.80
2019-05-09T20:11:06.619Z,2.12
2019-05-09T20:14:12.268Z,2.50
2019-05-09T20:17:01.858Z,2.33
2019-05-09T20:19:52.320Z,2.70
2019-05-09T20:22:52.645Z,3.15
2019-05-09T20:25:32.825Z,2.50
2019-05-09T20:28:21.996Z,2.62
2019-05-09T20:31:12.058Z,2.40
2019-05-09T20:34:01.277Z,2.22
2019-05-09T20:36:52.269Z,2.20
2019-05-09T20:39:42.360Z,2.47
2019-05-09T20:42:31.785Z,2.60
2019-05-09T20:45:20.830Z,2.58
2019-05-09T20:48:09.930Z,2.50
2019-05-09T20:51:00.307Z,3.02
2019-05-09T20:53:49.819Z,2.27
2019-05-09T20:56:41.292Z,2.42
2019-05-09T20:59:32.808Z,2.42
2019-05-09T21:02:23.711Z,2.37
2019-05-09T21:05:21.709Z,2.05
2019-05-09T21:08:12.371Z,2.75
2019-05-09T21:11:01.998Z,2.77
2019-05-09T21:14:00.244Z,2.65
2019-05-09T21:16:53.478Z,2.45
2019-05-09T21:19:46.784Z,2.45
2019-05-09T21:22:40.560Z,2.30
2019-05-09T21:25:33.218Z,2.45
2019-05-09T21:28:22.185Z,2.27
2019-05-09T21:31:12.456Z,2.58
2019-05-09T21:34:03.785Z,2.65
2019-05-09T21:36:54.006Z,2.62
2019-05-09T21:39:45.709Z,3.00
2019-05-09T21:42:35.203Z,3.05
2019-05-09T21:45:27.963Z,2.47
2019-05-09T21:48:19.053Z,2.60
2019-05-09T21:51:08.435Z,2.70
2019-05-09T21:53:58.246Z,3.17
2019-05-09T21:56:49.399Z,2.87
2019-05-09T21:59:41.261Z,2.60
2019-05-09T22:02:32.781Z,3.37
2019-05-09T22:05:33.038Z,3.05
2019-05-09T22:08:24.203Z,3.52
2019-05-09T22:11:15.308Z,2.70
2019-05-09T22:14:05.979Z,3.10
2019-05-09T22:16:58.595Z,3.55
2019-05-09T22:19:47.722Z,3.22
2019-05-09T22:22:36.908Z,3.70
2019-05-09T22:25:26.445Z,3.65
2019-05-09T22:28:16.522Z,3.60
2019-05-09T22:31:08.529Z,3.52
2019-05-09T22:34:02.643Z,3.33
2019-05-09T22:36:51.808Z,3.50
2019-05-09T22:39:40.403Z,3.42
2019-05-09T22:42:30.638Z,3.62
2019-05-09T22:45:22.075Z,3.65
2019-05-09T22:48:11.755Z,4.00
2019-05-09T22:51:01.066Z,3.40
2019-05-09T22:53:50.495Z,4.33
2019-05-09T22:56:39.007Z,3.85
2019-05-09T22:59:28.178Z,3.77
2019-05-09T23:02:17.632Z,3.62
2019-05-09T23:05:06.638Z,4.20
2019-05-09T23:07:56.033Z,3.83
2019-05-09T23:10:48.094Z,3.90
2019-05-09T23:13:57.589Z,3.98
2019-05-09T23:16:57.697Z,4.12
2019-05-09T23:19:47.507Z,4.08
2019-05-09T23:22:37.048Z,4.65
2019-05-09T23:25:26.818Z,4.47
2019-05-09T23:28:18.327Z,4.53
2019-05-09T23:31:13.402Z,4.55
2019-05-09T23:34:04.235Z,4.08
2019-05-09T23:36:53.900Z,3.98
2019-05-09T23:39:48.105Z,3.70
2019-05-09T23:42:38.952Z,3.45
2019-05-09T23:45:29.579Z,3.20
2019-05-09T23:48:19.410Z,3.02
2019-05-09T23:51:09.386Z,3.00
2019-05-09T23:53:58.421Z,3.15
2019-05-09T23:57:06.588Z,3.25
